Winsted, MN (55395)

5:48 PM CST on February 06, 2016 (GMT -0600)
Winsted Township | | Change Station
CLOSE
Current Station
Personal Weather Station
Location: Winsted, MN
Elevation: 1027 ft
Nearby Weather Stations
Active Advisory: Blizzard Watch

Elev 1027 ft 44.96 °N, 94.07 °W | Updated 8 minutes ago

Mostly Cloudy
Mostly Cloudy
33.4 °F
Feels Like 25 °F
N
11.9
Wind Variable Wind from WNW

Today
High -- | Low -- °F
--% Chance of Precip.
Yesterday
High -- | Low -- °F
Precip. -- in
Pressure 29.83 in
Visibility 10.0 miles
Clouds Mostly Cloudy 11000 ft
Windchill 25 °F
Dew Point 30 °F
Humidity 86%
Rainfall 0.00 in
Snow Depth Not available.
7:30 AM 5:30 PM
Waning Crescent, 3% visible
METAR KGYL 062335Z AUTO 18010G16KT 10SM BKN110 02/M01 A2983 RMK AO2 T00151006
Pressure 29.83 in
Visibility 10.0 miles
Clouds Mostly Cloudy 11000 ft
Windchill 25 °F
Dew Point 30 °F
Humidity 86%
Rainfall 0.00 in
Snow Depth Not available.
7:30 AM 5:30 PM
Waning Crescent, 3% visible
METAR KGYL 062335Z AUTO 18010G16KT 10SM BKN110 02/M01 A2983 RMK AO2 T00151006

10-Day Weather Forecast

Almanac

Astronomy

Feb. 06, 2016 Rise Set
Actual Time
Civil Twilight
Nautical Twilight
Astronomical Twilight
Moon
Length of Visible Light
Length of Day
Tomorrow will be .
, % of the Moon is Illuminated

Today's Extremes

State Highs State Lows

Community

WunderPhotos

Upload Photos

1,891,098 photos uploaded!

WunderBlog® & News

Nearby

Air Quality

  Air Quality AQ Index Pollutant
Not available.

Snow Depth

Station Depth Elevation

Earthquake Activity

City Distance Mag. Time & Date
Minimum magnitude displayed is 2.5.

Coastal Water Temperatures

Place Temperature

Stations

Nearby Weather Stations

Station Location Temp. Windchill Dew Point Humidity Wind Precip. Elev Updated Type
                   

Watches & Warnings

Blizzard Watch
Issued: 3:09 PM CST Feb. 6, 2016 – National Weather Service

... Blizzard watch remains in effect from Sunday afternoon through
Monday morning...

A blizzard watch remains in effect from Sunday afternoon through
Monday morning.

* Winds gusting as high as 45 mph could cause whiteout
conditions in blowing snow. Significant drifting of the snow
is likely.

* Total snow accumulations of up to 2 inches are possible.

* Travel could be very difficult to impossible.

Precautionary/preparedness actions...

A blizzard watch means there is a potential for falling and/or
blowing snow with strong winds and extremely poor visibilities.
This can lead to whiteout conditions and make travel very
dangerous.